sensor_id;sensor_type;location;lat;lon;timestamp;P1;durP1;ratioP1;P2;durP2;ratioP2
56039;SDS011;43937;41.366;2.072;2024-01-10T00:01:27;48.58;;;26.90;;
56039;SDS011;43937;41.366;2.072;2024-01-10T00:03:54;41.35;;;28.45;;
56039;SDS011;43937;41.366;2.072;2024-01-10T00:06:19;48.35;;;28.42;;
56039;SDS011;43937;41.366;2.072;2024-01-10T00:08:45;41.80;;;27.23;;
56039;SDS011;43937;41.366;2.072;2024-01-10T00:11:10;43.88;;;27.48;;
56039;SDS011;43937;41.366;2.072;2024-01-10T00:13:36;45.28;;;27.73;;
56039;SDS011;43937;41.366;2.072;2024-01-10T00:16:01;49.55;;;31.27;;
56039;SDS011;43937;41.366;2.072;2024-01-10T00:18:27;57.65;;;29.73;;
56039;SDS011;43937;41.366;2.072;2024-01-10T00:20:52;47.50;;;29.08;;
56039;SDS011;43937;41.366;2.072;2024-01-10T00:23:19;50.92;;;27.77;;
56039;SDS011;43937;41.366;2.072;2024-01-10T00:25:45;39.85;;;25.67;;
56039;SDS011;43937;41.366;2.072;2024-01-10T00:28:10;41.45;;;25.83;;
56039;SDS011;43937;41.366;2.072;2024-01-10T00:30:37;36.03;;;25.05;;
56039;SDS011;43937;41.366;2.072;2024-01-10T00:33:03;40.45;;;23.48;;
56039;SDS011;43937;41.366;2.072;2024-01-10T00:35:29;32.88;;;21.50;;
56039;SDS011;43937;41.366;2.072;2024-01-10T00:37:54;34.75;;;21.90;;
56039;SDS011;43937;41.366;2.072;2024-01-10T00:40:19;32.92;;;20.80;;
56039;SDS011;43937;41.366;2.072;2024-01-10T00:42:45;35.28;;;20.63;;
56039;SDS011;43937;41.366;2.072;2024-01-10T00:45:10;31.15;;;20.08;;
56039;SDS011;43937;41.366;2.072;2024-01-10T00:47:36;35.78;;;19.98;;
56039;SDS011;43937;41.366;2.072;2024-01-10T00:50:01;32.13;;;20.33;;
56039;SDS011;43937;41.366;2.072;2024-01-10T00:52:27;34.40;;;19.70;;
56039;SDS011;43937;41.366;2.072;2024-01-10T00:54:52;30.63;;;18.23;;
56039;SDS011;43937;41.366;2.072;2024-01-10T00:57:17;34.08;;;18.88;;
56039;SDS011;43937;41.366;2.072;2024-01-10T00:59:43;33.33;;;19.10;;
56039;SDS011;43937;41.366;2.072;2024-01-10T01:02:08;34.63;;;18.77;;
56039;SDS011;43937;41.366;2.072;2024-01-10T01:04:34;32.40;;;19.33;;
56039;SDS011;43937;41.366;2.072;2024-01-10T01:06:59;38.67;;;19.90;;
56039;SDS011;43937;41.366;2.072;2024-01-10T01:09:25;32.47;;;18.95;;
56039;SDS011;43937;41.366;2.072;2024-01-10T01:11:50;32.10;;;20.65;;
56039;SDS011;43937;41.366;2.072;2024-01-10T01:14:16;32.67;;;19.10;;
56039;SDS011;43937;41.366;2.072;2024-01-10T01:16:41;36.03;;;19.73;;
56039;SDS011;43937;41.366;2.072;2024-01-10T01:19:07;29.55;;;18.60;;
56039;SDS011;43937;41.366;2.072;2024-01-10T01:21:32;32.55;;;17.92;;
56039;SDS011;43937;41.366;2.072;2024-01-10T01:23:58;30.52;;;17.48;;
56039;SDS011;43937;41.366;2.072;2024-01-10T01:26:23;28.33;;;17.77;;
56039;SDS011;43937;41.366;2.072;2024-01-10T01:28:49;30.17;;;17.92;;
56039;SDS011;43937;41.366;2.072;2024-01-10T01:31:14;29.67;;;17.20;;
56039;SDS011;43937;41.366;2.072;2024-01-10T01:33:39;35.78;;;18.85;;
56039;SDS011;43937;41.366;2.072;2024-01-10T01:36:05;31.63;;;18.23;;
56039;SDS011;43937;41.366;2.072;2024-01-10T01:38:31;32.50;;;19.25;;
56039;SDS011;43937;41.366;2.072;2024-01-10T01:40:57;29.13;;;18.15;;
56039;SDS011;43937;41.366;2.072;2024-01-10T01:43:23;32.88;;;19.02;;
56039;SDS011;43937;41.366;2.072;2024-01-10T01:45:53;34.08;;;18.42;;
56039;SDS011;43937;41.366;2.072;2024-01-10T01:48:20;35.85;;;19.90;;
56039;SDS011;43937;41.366;2.072;2024-01-10T01:50:47;34.38;;;20.55;;
56039;SDS011;43937;41.366;2.072;2024-01-10T01:53:15;32.92;;;18.85;;
56039;SDS011;43937;41.366;2.072;2024-01-10T01:55:43;32.13;;;19.55;;
56039;SDS011;43937;41.366;2.072;2024-01-10T01:58:09;32.28;;;19.88;;
56039;SDS011;43937;41.366;2.072;2024-01-10T02:00:35;33.92;;;20.33;;
56039;SDS011;43937;41.366;2.072;2024-01-10T02:03:02;36.83;;;20.45;;
56039;SDS011;43937;41.366;2.072;2024-01-10T02:05:28;32.55;;;19.88;;
56039;SDS011;43937;41.366;2.072;2024-01-10T02:07:54;32.53;;;19.98;;
56039;SDS011;43937;41.366;2.072;2024-01-10T02:10:20;52.25;;;20.65;;
56039;SDS011;43937;41.366;2.072;2024-01-10T02:12:46;36.72;;;20.00;;
56039;SDS011;43937;41.366;2.072;2024-01-10T02:15:13;36.65;;;20.13;;
56039;SDS011;43937;41.366;2.072;2024-01-10T02:17:39;35.25;;;18.98;;
56039;SDS011;43937;41.366;2.072;2024-01-10T02:20:11;35.55;;;19.75;;
56039;SDS011;43937;41.366;2.072;2024-01-10T02:22:38;32.53;;;19.27;;
56039;SDS011;43937;41.366;2.072;2024-01-10T02:25:07;37.25;;;17.52;;
56039;SDS011;43937;41.366;2.072;2024-01-10T02:27:34;26.55;;;16.88;;
56039;SDS011;43937;41.366;2.072;2024-01-10T02:30:01;28.45;;;17.13;;
56039;SDS011;43937;41.366;2.072;2024-01-10T02:32:28;26.10;;;17.67;;
56039;SDS011;43937;41.366;2.072;2024-01-10T02:34:53;30.70;;;17.08;;
56039;SDS011;43937;41.366;2.072;2024-01-10T02:37:19;38.17;;;18.05;;
56039;SDS011;43937;41.366;2.072;2024-01-10T02:39:44;32.60;;;16.70;;
56039;SDS011;43937;41.366;2.072;2024-01-10T02:42:10;31.40;;;16.98;;
56039;SDS011;43937;41.366;2.072;2024-01-10T02:44:35;31.55;;;16.63;;
56039;SDS011;43937;41.366;2.072;2024-01-10T02:47:01;34.65;;;17.80;;
56039;SDS011;43937;41.366;2.072;2024-01-10T02:49:26;33.30;;;16.35;;
56039;SDS011;43937;41.366;2.072;2024-01-10T02:51:52;30.90;;;16.73;;
56039;SDS011;43937;41.366;2.072;2024-01-10T02:54:17;30.55;;;16.42;;
56039;SDS011;43937;41.366;2.072;2024-01-10T02:56:42;29.48;;;16.13;;
56039;SDS011;43937;41.366;2.072;2024-01-10T02:59:08;31.65;;;17.40;;
56039;SDS011;43937;41.366;2.072;2024-01-10T03:01:33;28.58;;;15.48;;
56039;SDS011;43937;41.366;2.072;2024-01-10T03:03:59;32.33;;;16.05;;
56039;SDS011;43937;41.366;2.072;2024-01-10T03:06:24;31.92;;;16.48;;
56039;SDS011;43937;41.366;2.072;2024-01-10T03:08:50;33.60;;;16.50;;
56039;SDS011;43937;41.366;2.072;2024-01-10T03:11:16;29.00;;;15.75;;
56039;SDS011;43937;41.366;2.072;2024-01-10T03:13:43;31.02;;;17.13;;
56039;SDS011;43937;41.366;2.072;2024-01-10T03:16:10;29.60;;;16.50;;
56039;SDS011;43937;41.366;2.072;2024-01-10T03:18:36;34.17;;;16.92;;
56039;SDS011;43937;41.366;2.072;2024-01-10T03:21:01;33.05;;;16.10;;
56039;SDS011;43937;41.366;2.072;2024-01-10T03:23:27;26.85;;;15.55;;
56039;SDS011;43937;41.366;2.072;2024-01-10T03:25:52;37.83;;;16.10;;
56039;SDS011;43937;41.366;2.072;2024-01-10T03:28:18;29.63;;;15.27;;
56039;SDS011;43937;41.366;2.072;2024-01-10T03:30:43;27.13;;;15.98;;
56039;SDS011;43937;41.366;2.072;2024-01-10T03:33:09;31.80;;;15.98;;
56039;SDS011;43937;41.366;2.072;2024-01-10T03:35:35;28.60;;;15.60;;
56039;SDS011;43937;41.366;2.072;2024-01-10T03:38:00;30.08;;;15.93;;
56039;SDS011;43937;41.366;2.072;2024-01-10T03:40:26;25.48;;;15.18;;
56039;SDS011;43937;41.366;2.072;2024-01-10T03:42:51;28.05;;;15.38;;
56039;SDS011;43937;41.366;2.072;2024-01-10T03:45:17;27.35;;;15.32;;
56039;SDS011;43937;41.366;2.072;2024-01-10T03:47:45;26.83;;;15.10;;
56039;SDS011;43937;41.366;2.072;2024-01-10T03:50:15;27.85;;;16.33;;
56039;SDS011;43937;41.366;2.072;2024-01-10T03:52:42;29.95;;;16.30;;
56039;SDS011;43937;41.366;2.072;2024-01-10T03:55:08;28.70;;;17.17;;
56039;SDS011;43937;41.366;2.072;2024-01-10T03:57:34;33.10;;;16.58;;
56039;SDS011;43937;41.366;2.072;2024-01-10T03:59:59;32.60;;;16.92;;
56039;SDS011;43937;41.366;2.072;2024-01-10T04:02:25;31.27;;;16.50;;
56039;SDS011;43937;41.366;2.072;2024-01-10T04:04:53;33.05;;;16.88;;
56039;SDS011;43937;41.366;2.072;2024-01-10T04:07:18;27.67;;;15.85;;
56039;SDS011;43937;41.366;2.072;2024-01-10T04:09:44;33.85;;;15.95;;
56039;SDS011;43937;41.366;2.072;2024-01-10T04:12:10;27.48;;;16.20;;
56039;SDS011;43937;41.366;2.072;2024-01-10T04:14:35;29.73;;;16.65;;
56039;SDS011;43937;41.366;2.072;2024-01-10T04:17:00;30.30;;;16.33;;
56039;SDS011;43937;41.366;2.072;2024-01-10T04:19:26;31.75;;;16.58;;
56039;SDS011;43937;41.366;2.072;2024-01-10T04:21:52;28.25;;;15.45;;
56039;SDS011;43937;41.366;2.072;2024-01-10T04:24:17;26.10;;;15.07;;
56039;SDS011;43937;41.366;2.072;2024-01-10T04:26:43;24.65;;;14.43;;
56039;SDS011;43937;41.366;2.072;2024-01-10T04:29:08;24.45;;;13.95;;
56039;SDS011;43937;41.366;2.072;2024-01-10T04:31:33;28.15;;;14.38;;
56039;SDS011;43937;41.366;2.072;2024-01-10T04:34:00;26.20;;;14.55;;
56039;SDS011;43937;41.366;2.072;2024-01-10T04:36:26;25.65;;;16.02;;
56039;SDS011;43937;41.366;2.072;2024-01-10T04:38:52;27.52;;;14.65;;
56039;SDS011;43937;41.366;2.072;2024-01-10T04:41:18;28.75;;;14.48;;
56039;SDS011;43937;41.366;2.072;2024-01-10T04:43:44;26.67;;;14.50;;
56039;SDS011;43937;41.366;2.072;2024-01-10T04:46:09;26.45;;;12.85;;
56039;SDS011;43937;41.366;2.072;2024-01-10T04:48:35;26.48;;;13.43;;
56039;SDS011;43937;41.366;2.072;2024-01-10T04:51:01;25.38;;;13.93;;
56039;SDS011;43937;41.366;2.072;2024-01-10T04:53:27;22.35;;;13.27;;
56039;SDS011;43937;41.366;2.072;2024-01-10T04:55:52;23.75;;;13.18;;
56039;SDS011;43937;41.366;2.072;2024-01-10T04:58:18;26.27;;;14.10;;
56039;SDS011;43937;41.366;2.072;2024-01-10T05:00:43;22.45;;;13.73;;
56039;SDS011;43937;41.366;2.072;2024-01-10T05:03:09;29.75;;;14.73;;
56039;SDS011;43937;41.366;2.072;2024-01-10T05:05:34;28.52;;;13.70;;
56039;SDS011;43937;41.366;2.072;2024-01-10T05:07:59;25.98;;;13.32;;
56039;SDS011;43937;41.366;2.072;2024-01-10T05:10:26;21.92;;;13.93;;
56039;SDS011;43937;41.366;2.072;2024-01-10T05:12:52;29.30;;;14.20;;
56039;SDS011;43937;41.366;2.072;2024-01-10T05:15:17;25.25;;;14.23;;
56039;SDS011;43937;41.366;2.072;2024-01-10T05:17:43;21.42;;;13.95;;
56039;SDS011;43937;41.366;2.072;2024-01-10T05:20:09;28.17;;;14.25;;
56039;SDS011;43937;41.366;2.072;2024-01-10T05:22:34;28.50;;;13.35;;
56039;SDS011;43937;41.366;2.072;2024-01-10T05:25:00;24.00;;;13.18;;
56039;SDS011;43937;41.366;2.072;2024-01-10T05:27:26;20.40;;;13.07;;
56039;SDS011;43937;41.366;2.072;2024-01-10T05:29:52;20.63;;;13.32;;
56039;SDS011;43937;41.366;2.072;2024-01-10T05:32:17;22.85;;;13.55;;
56039;SDS011;43937;41.366;2.072;2024-01-10T05:34:43;26.23;;;13.52;;
56039;SDS011;43937;41.366;2.072;2024-01-10T05:37:09;23.45;;;13.52;;
56039;SDS011;43937;41.366;2.072;2024-01-10T05:39:35;24.02;;;13.02;;
56039;SDS011;43937;41.366;2.072;2024-01-10T05:42:00;26.67;;;13.30;;
56039;SDS011;43937;41.366;2.072;2024-01-10T05:44:27;20.92;;;12.65;;
56039;SDS011;43937;41.366;2.072;2024-01-10T05:46:53;20.83;;;13.25;;
56039;SDS011;43937;41.366;2.072;2024-01-10T05:49:18;25.10;;;13.30;;
56039;SDS011;43937;41.366;2.072;2024-01-10T05:51:44;27.73;;;12.75;;
56039;SDS011;43937;41.366;2.072;2024-01-10T05:54:10;23.48;;;12.13;;
56039;SDS011;43937;41.366;2.072;2024-01-10T05:56:35;25.90;;;12.50;;
56039;SDS011;43937;41.366;2.072;2024-01-10T05:59:00;19.63;;;12.35;;
56039;SDS011;43937;41.366;2.072;2024-01-10T06:01:26;23.42;;;12.85;;
56039;SDS011;43937;41.366;2.072;2024-01-10T06:03:52;18.35;;;12.48;;
56039;SDS011;43937;41.366;2.072;2024-01-10T06:06:17;23.52;;;13.40;;
56039;SDS011;43937;41.366;2.072;2024-01-10T06:08:43;21.48;;;12.80;;
56039;SDS011;43937;41.366;2.072;2024-01-10T06:11:08;28.55;;;13.80;;
56039;SDS011;43937;41.366;2.072;2024-01-10T06:13:35;24.45;;;12.93;;
56039;SDS011;43937;41.366;2.072;2024-01-10T06:16:02;23.00;;;13.30;;
56039;SDS011;43937;41.366;2.072;2024-01-10T06:18:28;23.25;;;13.52;;
56039;SDS011;43937;41.366;2.072;2024-01-10T06:20:53;24.50;;;12.43;;
56039;SDS011;43937;41.366;2.072;2024-01-10T06:23:19;25.08;;;13.48;;
56039;SDS011;43937;41.366;2.072;2024-01-10T06:25:44;21.35;;;12.55;;
56039;SDS011;43937;41.366;2.072;2024-01-10T06:28:10;22.58;;;13.15;;
56039;SDS011;43937;41.366;2.072;2024-01-10T06:30:35;21.80;;;12.63;;
56039;SDS011;43937;41.366;2.072;2024-01-10T06:33:01;24.00;;;13.68;;
56039;SDS011;43937;41.366;2.072;2024-01-10T06:35:26;25.20;;;13.15;;
56039;SDS011;43937;41.366;2.072;2024-01-10T06:37:52;29.23;;;14.13;;
56039;SDS011;43937;41.366;2.072;2024-01-10T06:40:17;21.95;;;14.40;;
56039;SDS011;43937;41.366;2.072;2024-01-10T06:42:43;22.85;;;14.55;;
56039;SDS011;43937;41.366;2.072;2024-01-10T06:45:08;28.15;;;16.10;;
56039;SDS011;43937;41.366;2.072;2024-01-10T06:47:34;24.42;;;15.65;;
56039;SDS011;43937;41.366;2.072;2024-01-10T06:50:00;25.50;;;14.95;;
56039;SDS011;43937;41.366;2.072;2024-01-10T06:52:26;24.80;;;16.20;;
56039;SDS011;43937;41.366;2.072;2024-01-10T06:54:51;27.15;;;15.18;;
56039;SDS011;43937;41.366;2.072;2024-01-10T06:57:17;25.25;;;14.68;;
56039;SDS011;43937;41.366;2.072;2024-01-10T06:59:43;28.83;;;16.70;;
56039;SDS011;43937;41.366;2.072;2024-01-10T07:02:08;28.17;;;15.88;;
56039;SDS011;43937;41.366;2.072;2024-01-10T07:04:36;27.45;;;16.63;;
56039;SDS011;43937;41.366;2.072;2024-01-10T07:07:02;26.92;;;16.10;;
56039;SDS011;43937;41.366;2.072;2024-01-10T07:09:29;31.98;;;16.65;;
56039;SDS011;43937;41.366;2.072;2024-01-10T07:11:54;27.38;;;15.13;;
56039;SDS011;43937;41.366;2.072;2024-01-10T07:14:20;25.83;;;15.93;;
56039;SDS011;43937;41.366;2.072;2024-01-10T07:16:45;25.05;;;15.93;;
56039;SDS011;43937;41.366;2.072;2024-01-10T07:19:12;25.65;;;14.88;;
56039;SDS011;43937;41.366;2.072;2024-01-10T07:21:39;26.40;;;14.75;;
56039;SDS011;43937;41.366;2.072;2024-01-10T07:24:06;28.52;;;15.52;;
56039;SDS011;43937;41.366;2.072;2024-01-10T07:26:33;25.02;;;15.10;;
56039;SDS011;43937;41.366;2.072;2024-01-10T07:28:59;29.55;;;14.68;;
56039;SDS011;43937;41.366;2.072;2024-01-10T07:31:27;25.38;;;14.60;;
56039;SDS011;43937;41.366;2.072;2024-01-10T07:33:56;21.00;;;14.40;;
56039;SDS011;43937;41.366;2.072;2024-01-10T07:36:23;29.17;;;14.18;;
56039;SDS011;43937;41.366;2.072;2024-01-10T07:38:49;25.90;;;15.23;;
56039;SDS011;43937;41.366;2.072;2024-01-10T07:41:15;29.80;;;14.95;;
56039;SDS011;43937;41.366;2.072;2024-01-10T07:43:40;24.05;;;15.20;;
56039;SDS011;43937;41.366;2.072;2024-01-10T07:46:08;22.42;;;14.43;;
56039;SDS011;43937;41.366;2.072;2024-01-10T07:48:36;24.38;;;14.15;;
56039;SDS011;43937;41.366;2.072;2024-01-10T07:51:02;26.02;;;14.02;;
56039;SDS011;43937;41.366;2.072;2024-01-10T07:53:29;22.67;;;14.63;;
56039;SDS011;43937;41.366;2.072;2024-01-10T07:55:55;28.17;;;14.80;;
56039;SDS011;43937;41.366;2.072;2024-01-10T07:58:20;28.90;;;14.68;;
56039;SDS011;43937;41.366;2.072;2024-01-10T08:00:45;22.98;;;13.98;;
56039;SDS011;43937;41.366;2.072;2024-01-10T08:03:11;23.75;;;14.88;;
56039;SDS011;43937;41.366;2.072;2024-01-10T08:05:37;25.33;;;15.35;;
56039;SDS011;43937;41.366;2.072;2024-01-10T08:08:02;28.85;;;15.65;;
56039;SDS011;43937;41.366;2.072;2024-01-10T08:10:28;27.65;;;16.13;;
56039;SDS011;43937;41.366;2.072;2024-01-10T08:12:54;27.90;;;17.10;;
56039;SDS011;43937;41.366;2.072;2024-01-10T08:15:19;33.47;;;17.83;;
56039;SDS011;43937;41.366;2.072;2024-01-10T08:17:45;27.75;;;16.50;;
56039;SDS011;43937;41.366;2.072;2024-01-10T08:20:11;25.10;;;15.50;;
56039;SDS011;43937;41.366;2.072;2024-01-10T08:22:39;33.97;;;16.50;;
56039;SDS011;43937;41.366;2.072;2024-01-10T08:25:05;27.77;;;17.88;;
56039;SDS011;43937;41.366;2.072;2024-01-10T08:27:31;30.52;;;16.95;;
56039;SDS011;43937;41.366;2.072;2024-01-10T08:29:58;31.30;;;18.05;;
56039;SDS011;43937;41.366;2.072;2024-01-10T08:32:24;32.88;;;18.05;;
56039;SDS011;43937;41.366;2.072;2024-01-10T08:34:49;34.40;;;20.92;;
56039;SDS011;43937;41.366;2.072;2024-01-10T08:37:15;32.70;;;19.65;;
56039;SDS011;43937;41.366;2.072;2024-01-10T08:39:44;31.63;;;19.42;;
56039;SDS011;43937;41.366;2.072;2024-01-10T08:42:09;35.47;;;18.17;;
56039;SDS011;43937;41.366;2.072;2024-01-10T08:44:35;28.63;;;17.75;;
56039;SDS011;43937;41.366;2.072;2024-01-10T08:47:00;31.58;;;17.77;;
56039;SDS011;43937;41.366;2.072;2024-01-10T08:49:26;27.73;;;16.75;;
56039;SDS011;43937;41.366;2.072;2024-01-10T08:51:51;25.73;;;16.50;;
56039;SDS011;43937;41.366;2.072;2024-01-10T08:54:18;28.40;;;15.70;;
56039;SDS011;43937;41.366;2.072;2024-01-10T08:56:45;29.65;;;16.08;;
56039;SDS011;43937;41.366;2.072;2024-01-10T08:59:11;29.23;;;16.50;;
56039;SDS011;43937;41.366;2.072;2024-01-10T09:01:37;31.20;;;15.80;;
56039;SDS011;43937;41.366;2.072;2024-01-10T09:04:04;31.00;;;16.38;;
56039;SDS011;43937;41.366;2.072;2024-01-10T09:06:30;31.65;;;17.05;;
56039;SDS011;43937;41.366;2.072;2024-01-10T09:08:56;30.70;;;18.00;;
56039;SDS011;43937;41.366;2.072;2024-01-10T09:11:22;27.63;;;17.23;;
56039;SDS011;43937;41.366;2.072;2024-01-10T09:13:47;29.77;;;17.25;;
56039;SDS011;43937;41.366;2.072;2024-01-10T09:16:13;26.40;;;16.50;;
56039;SDS011;43937;41.366;2.072;2024-01-10T09:18:38;23.98;;;15.57;;
56039;SDS011;43937;41.366;2.072;2024-01-10T09:21:05;27.13;;;16.27;;
56039;SDS011;43937;41.366;2.072;2024-01-10T09:23:30;29.15;;;15.77;;
56039;SDS011;43937;41.366;2.072;2024-01-10T09:25:56;24.75;;;15.73;;
56039;SDS011;43937;41.366;2.072;2024-01-10T09:28:21;28.73;;;16.48;;
56039;SDS011;43937;41.366;2.072;2024-01-10T09:30:47;27.42;;;16.67;;
56039;SDS011;43937;41.366;2.072;2024-01-10T09:33:12;25.98;;;15.15;;
56039;SDS011;43937;41.366;2.072;2024-01-10T09:35:38;29.60;;;14.82;;
56039;SDS011;43937;41.366;2.072;2024-01-10T09:38:03;31.83;;;16.85;;
56039;SDS011;43937;41.366;2.072;2024-01-10T09:40:29;31.60;;;17.38;;
56039;SDS011;43937;41.366;2.072;2024-01-10T09:42:55;36.70;;;16.90;;
56039;SDS011;43937;41.366;2.072;2024-01-10T09:45:20;64.03;;;22.98;;
56039;SDS011;43937;41.366;2.072;2024-01-10T09:47:51;54.90;;;21.55;;
56039;SDS011;43937;41.366;2.072;2024-01-10T09:50:20;55.15;;;22.00;;
56039;SDS011;43937;41.366;2.072;2024-01-10T09:52:52;51.15;;;21.27;;
56039;SDS011;43937;41.366;2.072;2024-01-10T09:55:22;42.30;;;17.50;;
56039;SDS011;43937;41.366;2.072;2024-01-10T09:57:50;49.85;;;19.98;;
56039;SDS011;43937;41.366;2.072;2024-01-10T10:00:16;52.15;;;19.88;;
56039;SDS011;43937;41.366;2.072;2024-01-10T10:02:42;51.90;;;20.65;;
56039;SDS011;43937;41.366;2.072;2024-01-10T10:07:47;51.95;;;21.33;;
56039;SDS011;43937;41.366;2.072;2024-01-10T10:10:14;30.00;;;17.88;;
56039;SDS011;43937;41.366;2.072;2024-01-10T10:12:47;37.85;;;17.10;;
56039;SDS011;43937;41.366;2.072;2024-01-10T10:15:17;49.30;;;20.42;;
56039;SDS011;43937;41.366;2.072;2024-01-10T10:17:53;29.83;;;17.80;;
56039;SDS011;43937;41.366;2.072;2024-01-10T10:22:58;35.80;;;18.75;;
56039;SDS011;43937;41.366;2.072;2024-01-10T10:25:29;32.08;;;18.40;;
56039;SDS011;43937;41.366;2.072;2024-01-10T10:28:03;31.33;;;18.33;;
56039;SDS011;43937;41.366;2.072;2024-01-10T10:30:31;34.72;;;18.73;;
56039;SDS011;43937;41.366;2.072;2024-01-10T10:32:57;35.88;;;19.92;;
56039;SDS011;43937;41.366;2.072;2024-01-10T10:35:23;43.03;;;21.02;;
56039;SDS011;43937;41.366;2.072;2024-01-10T10:37:49;34.80;;;19.73;;
56039;SDS011;43937;41.366;2.072;2024-01-10T10:40:15;26.15;;;18.60;;
56039;SDS011;43937;41.366;2.072;2024-01-10T10:42:45;32.55;;;19.17;;
56039;SDS011;43937;41.366;2.072;2024-01-10T10:45:15;29.33;;;17.23;;
56039;SDS011;43937;41.366;2.072;2024-01-10T10:47:43;34.45;;;18.27;;
56039;SDS011;43937;41.366;2.072;2024-01-10T10:50:14;34.78;;;19.42;;
56039;SDS011;43937;41.366;2.072;2024-01-10T10:52:47;34.65;;;21.05;;
56039;SDS011;43937;41.366;2.072;2024-01-10T10:55:15;31.67;;;19.90;;
56039;SDS011;43937;41.366;2.072;2024-01-10T10:57:44;32.28;;;19.75;;
56039;SDS011;43937;41.366;2.072;2024-01-10T11:00:12;31.00;;;19.77;;
56039;SDS011;43937;41.366;2.072;2024-01-10T11:02:40;34.13;;;19.45;;
56039;SDS011;43937;41.366;2.072;2024-01-10T11:05:06;35.20;;;18.83;;
56039;SDS011;43937;41.366;2.072;2024-01-10T11:07:35;29.60;;;18.52;;
56039;SDS011;43937;41.366;2.072;2024-01-10T11:10:04;31.08;;;19.30;;
56039;SDS011;43937;41.366;2.072;2024-01-10T11:12:55;32.92;;;19.58;;
56039;SDS011;43937;41.366;2.072;2024-01-10T11:18:49;36.70;;;20.00;;
56039;SDS011;43937;41.366;2.072;2024-01-10T11:24:20;39.00;;;17.98;;
56039;SDS011;43937;41.366;2.072;2024-01-10T11:26:46;31.98;;;18.73;;
56039;SDS011;43937;41.366;2.072;2024-01-10T11:29:11;34.50;;;18.13;;
56039;SDS011;43937;41.366;2.072;2024-01-10T11:31:38;28.45;;;17.83;;
56039;SDS011;43937;41.366;2.072;2024-01-10T11:34:04;35.38;;;19.55;;
56039;SDS011;43937;41.366;2.072;2024-01-10T11:36:29;27.27;;;17.30;;
56039;SDS011;43937;41.366;2.072;2024-01-10T11:38:57;36.78;;;18.60;;
56039;SDS011;43937;41.366;2.072;2024-01-10T11:41:33;33.03;;;19.67;;
56039;SDS011;43937;41.366;2.072;2024-01-10T11:46:34;40.22;;;20.27;;
56039;SDS011;43937;41.366;2.072;2024-01-10T11:49:00;32.53;;;18.13;;
56039;SDS011;43937;41.366;2.072;2024-01-10T11:51:26;36.88;;;18.83;;
56039;SDS011;43937;41.366;2.072;2024-01-10T11:53:52;36.10;;;18.55;;
56039;SDS011;43937;41.366;2.072;2024-01-10T11:56:19;30.27;;;18.13;;
56039;SDS011;43937;41.366;2.072;2024-01-10T11:59:03;33.42;;;17.80;;
56039;SDS011;43937;41.366;2.072;2024-01-10T12:01:33;31.23;;;18.10;;
56039;SDS011;43937;41.366;2.072;2024-01-10T12:03:58;30.15;;;19.33;;
56039;SDS011;43937;41.366;2.072;2024-01-10T12:06:25;25.50;;;17.98;;
56039;SDS011;43937;41.366;2.072;2024-01-10T12:08:50;31.38;;;17.48;;
56039;SDS011;43937;41.366;2.072;2024-01-10T12:11:16;38.45;;;18.10;;
56039;SDS011;43937;41.366;2.072;2024-01-10T12:13:42;33.17;;;19.20;;
56039;SDS011;43937;41.366;2.072;2024-01-10T12:16:09;29.83;;;17.00;;
56039;SDS011;43937;41.366;2.072;2024-01-10T12:18:36;29.95;;;16.75;;
56039;SDS011;43937;41.366;2.072;2024-01-10T12:21:02;34.88;;;17.88;;
56039;SDS011;43937;41.366;2.072;2024-01-10T12:23:27;32.50;;;17.58;;
56039;SDS011;43937;41.366;2.072;2024-01-10T12:25:56;28.75;;;17.35;;
56039;SDS011;43937;41.366;2.072;2024-01-10T12:28:22;31.50;;;18.80;;
56039;SDS011;43937;41.366;2.072;2024-01-10T12:30:48;28.50;;;18.02;;
56039;SDS011;43937;41.366;2.072;2024-01-10T12:33:14;33.83;;;17.08;;
56039;SDS011;43937;41.366;2.072;2024-01-10T12:35:39;31.83;;;17.15;;
56039;SDS011;43937;41.366;2.072;2024-01-10T12:38:07;30.95;;;16.52;;
56039;SDS011;43937;41.366;2.072;2024-01-10T12:40:36;30.17;;;16.95;;
56039;SDS011;43937;41.366;2.072;2024-01-10T12:43:02;41.72;;;17.08;;
56039;SDS011;43937;41.366;2.072;2024-01-10T12:45:29;34.40;;;17.83;;
56039;SDS011;43937;41.366;2.072;2024-01-10T12:47:54;37.35;;;16.98;;
56039;SDS011;43937;41.366;2.072;2024-01-10T12:50:20;35.70;;;18.60;;
56039;SDS011;43937;41.366;2.072;2024-01-10T12:52:45;29.52;;;16.90;;
56039;SDS011;43937;41.366;2.072;2024-01-10T12:55:11;27.65;;;16.10;;
56039;SDS011;43937;41.366;2.072;2024-01-10T12:57:37;29.38;;;17.40;;
56039;SDS011;43937;41.366;2.072;2024-01-10T13:00:03;30.55;;;17.13;;
56039;SDS011;43937;41.366;2.072;2024-01-10T13:02:32;25.85;;;16.83;;
56039;SDS011;43937;41.366;2.072;2024-01-10T13:05:02;28.83;;;17.17;;
56039;SDS011;43937;41.366;2.072;2024-01-10T13:07:34;26.10;;;16.67;;
56039;SDS011;43937;41.366;2.072;2024-01-10T13:10:02;28.10;;;17.50;;
56039;SDS011;43937;41.366;2.072;2024-01-10T13:12:28;31.67;;;17.85;;
56039;SDS011;43937;41.366;2.072;2024-01-10T13:14:53;35.08;;;18.52;;
56039;SDS011;43937;41.366;2.072;2024-01-10T13:17:19;32.67;;;18.55;;
56039;SDS011;43937;41.366;2.072;2024-01-10T13:19:45;41.15;;;18.48;;
56039;SDS011;43937;41.366;2.072;2024-01-10T13:22:14;34.20;;;19.63;;
56039;SDS011;43937;41.366;2.072;2024-01-10T13:24:44;26.63;;;18.15;;
56039;SDS011;43937;41.366;2.072;2024-01-10T13:27:10;32.42;;;17.85;;
56039;SDS011;43937;41.366;2.072;2024-01-10T13:29:35;28.20;;;18.20;;
56039;SDS011;43937;41.366;2.072;2024-01-10T13:32:05;31.27;;;18.67;;
56039;SDS011;43937;41.366;2.072;2024-01-10T13:34:32;35.72;;;19.42;;
56039;SDS011;43937;41.366;2.072;2024-01-10T13:36:58;32.72;;;19.38;;
56039;SDS011;43937;41.366;2.072;2024-01-10T13:39:23;29.02;;;19.23;;
56039;SDS011;43937;41.366;2.072;2024-01-10T13:41:49;32.65;;;20.75;;
56039;SDS011;43937;41.366;2.072;2024-01-10T13:44:15;34.42;;;19.35;;
56039;SDS011;43937;41.366;2.072;2024-01-10T13:46:41;29.67;;;19.45;;
56039;SDS011;43937;41.366;2.072;2024-01-10T13:49:06;34.90;;;19.38;;
56039;SDS011;43937;41.366;2.072;2024-01-10T13:51:31;28.83;;;19.02;;
56039;SDS011;43937;41.366;2.072;2024-01-10T13:53:57;30.65;;;19.70;;
56039;SDS011;43937;41.366;2.072;2024-01-10T13:56:22;37.13;;;18.70;;
56039;SDS011;43937;41.366;2.072;2024-01-10T13:58:49;26.33;;;17.48;;
56039;SDS011;43937;41.366;2.072;2024-01-10T14:01:14;32.05;;;17.92;;
56039;SDS011;43937;41.366;2.072;2024-01-10T14:03:39;31.15;;;18.20;;
56039;SDS011;43937;41.366;2.072;2024-01-10T14:06:06;30.42;;;17.88;;
56039;SDS011;43937;41.366;2.072;2024-01-10T14:08:32;32.70;;;18.30;;
56039;SDS011;43937;41.366;2.072;2024-01-10T14:10:59;34.95;;;19.88;;
56039;SDS011;43937;41.366;2.072;2024-01-10T14:13:24;32.85;;;18.00;;
56039;SDS011;43937;41.366;2.072;2024-01-10T14:15:50;30.63;;;18.38;;
56039;SDS011;43937;41.366;2.072;2024-01-10T14:18:15;29.25;;;18.67;;
56039;SDS011;43937;41.366;2.072;2024-01-10T14:20:41;38.05;;;20.00;;
56039;SDS011;43937;41.366;2.072;2024-01-10T14:23:06;30.45;;;18.85;;
56039;SDS011;43937;41.366;2.072;2024-01-10T14:25:32;31.65;;;19.60;;
56039;SDS011;43937;41.366;2.072;2024-01-10T14:27:57;37.00;;;21.13;;
56039;SDS011;43937;41.366;2.072;2024-01-10T14:30:28;36.78;;;20.63;;